To NAV CANADA Home Page Login to a new session Search on AWWS site Disclaimer Vers la page française équivalente Tips FAQ What's new on the site To the Forecasts and Observations / NOTAM section To "File a Flight Plan" website Publications and other links Update of the User's profile FIC Telephone Numbers My Weather Data Folder Route Weather Data Regional Weather Data Local Weather Data To the Forecasts and Observations / NOTAM section
Request Generated 03/19/2019 at 23:03:53 UTC . Weather information available at that time is displayed.

METAR/TAF

PORTAGE LA PRAIRIE/SOUTHPORT/MB    

METAR CYPG 192200Z CCA 24014G19KT 15SM FEW082 SCT240 08/M03 A2989 RMK AC2CI2 LAST OBS/NEXT 201100 UTC SLP133=
METAR CYPG 192200Z 24014G19KT 15SM FEW082 SCT240 08/M03 A2989 RMK AC2CI2 SLP133=
METAR CYPG 192100Z 24013G18KT 15SM SCT082 BKN240 07/M02 A2992 RMK AC3CI2 SLP145=
METAR CYPG 192000Z 24015KT 15SM BKN086 BKN240 05/M02 A2996 RMK AC6CI1 SLP158=

TAF AMD CYPG 192217Z 1918/2006 FCST CNCLD DUE END OF FLYING PROGRAM
RMK NXT FCST WILL BE ISSUED AT 201215Z=
Your time UTC time
Weather data provided by Environment Canada and NAV CANADA